sensor_id;sensor_type;location;lat;lon;timestamp;temperature;humidity
254;DHT22;590;48.772;8.846;2023-06-01T00:01:54;13.00;52.10
254;DHT22;590;48.772;8.846;2023-06-01T00:05:14;13.00;51.60
254;DHT22;590;48.772;8.846;2023-06-01T00:08:42;13.00;50.40
254;DHT22;590;48.772;8.846;2023-06-01T00:11:48;12.80;52.00
254;DHT22;590;48.772;8.846;2023-06-01T00:14:49;12.60;51.20
254;DHT22;590;48.772;8.846;2023-06-01T00:17:18;12.40;56.10
254;DHT22;590;48.772;8.846;2023-06-01T00:19:46;12.30;60.30
254;DHT22;590;48.772;8.846;2023-06-01T00:22:14;12.40;61.00
254;DHT22;590;48.772;8.846;2023-06-01T00:24:43;12.40;61.00
254;DHT22;590;48.772;8.846;2023-06-01T00:27:11;12.30;60.60
254;DHT22;590;48.772;8.846;2023-06-01T00:29:39;12.30;62.10
254;DHT22;590;48.772;8.846;2023-06-01T00:32:07;12.30;62.60
254;DHT22;590;48.772;8.846;2023-06-01T00:34:37;12.20;62.50
254;DHT22;590;48.772;8.846;2023-06-01T00:37:05;12.30;61.80
254;DHT22;590;48.772;8.846;2023-06-01T00:39:33;12.30;60.90
254;DHT22;590;48.772;8.846;2023-06-01T00:42:01;12.30;61.00
254;DHT22;590;48.772;8.846;2023-06-01T00:44:29;12.20;61.50
254;DHT22;590;48.772;8.846;2023-06-01T00:46:57;12.00;62.40
254;DHT22;590;48.772;8.846;2023-06-01T00:49:26;12.00;62.50
254;DHT22;590;48.772;8.846;2023-06-01T00:51:55;11.80;62.40
254;DHT22;590;48.772;8.846;2023-06-01T00:54:23;11.80;63.90
254;DHT22;590;48.772;8.846;2023-06-01T00:56:52;11.80;65.40
254;DHT22;590;48.772;8.846;2023-06-01T00:59:20;11.80;65.40
254;DHT22;590;48.772;8.846;2023-06-01T01:01:48;11.70;66.80
254;DHT22;590;48.772;8.846;2023-06-01T01:04:16;11.70;67.50
254;DHT22;590;48.772;8.846;2023-06-01T01:07:01;11.70;67.40
254;DHT22;590;48.772;8.846;2023-06-01T01:09:37;11.70;67.50
254;DHT22;590;48.772;8.846;2023-06-01T01:12:09;11.60;67.30
254;DHT22;590;48.772;8.846;2023-06-01T01:14:48;11.60;67.40
254;DHT22;590;48.772;8.846;2023-06-01T01:17:22;11.60;67.00
254;DHT22;590;48.772;8.846;2023-06-01T01:20:01;11.50;67.10
254;DHT22;590;48.772;8.846;2023-06-01T01:22:52;11.50;67.90
254;DHT22;590;48.772;8.846;2023-06-01T01:25:40;11.50;69.30
254;DHT22;590;48.772;8.846;2023-06-01T01:28:32;11.50;70.30
254;DHT22;590;48.772;8.846;2023-06-01T01:31:03;11.60;69.40
254;DHT22;590;48.772;8.846;2023-06-01T01:33:32;11.60;69.40
254;DHT22;590;48.772;8.846;2023-06-01T01:36:01;11.60;69.00
254;DHT22;590;48.772;8.846;2023-06-01T01:38:29;11.50;68.60
254;DHT22;590;48.772;8.846;2023-06-01T01:40:57;11.40;68.50
254;DHT22;590;48.772;8.846;2023-06-01T01:43:27;11.40;68.00
254;DHT22;590;48.772;8.846;2023-06-01T01:46:05;11.30;68.40
254;DHT22;590;48.772;8.846;2023-06-01T01:48:37;11.30;69.20
254;DHT22;590;48.772;8.846;2023-06-01T01:51:10;11.30;69.80
254;DHT22;590;48.772;8.846;2023-06-01T01:53:41;11.20;71.10
254;DHT22;590;48.772;8.846;2023-06-01T01:56:13;11.20;71.10
254;DHT22;590;48.772;8.846;2023-06-01T01:58:43;11.10;71.60
254;DHT22;590;48.772;8.846;2023-06-01T02:01:12;11.20;71.70
254;DHT22;590;48.772;8.846;2023-06-01T02:03:40;11.30;70.60
254;DHT22;590;48.772;8.846;2023-06-01T02:06:08;11.30;70.70
254;DHT22;590;48.772;8.846;2023-06-01T02:08:36;11.30;70.90
254;DHT22;590;48.772;8.846;2023-06-01T02:11:04;11.20;70.60
254;DHT22;590;48.772;8.846;2023-06-01T02:13:32;11.20;70.70
254;DHT22;590;48.772;8.846;2023-06-01T02:16:02;11.10;71.20
254;DHT22;590;48.772;8.846;2023-06-01T02:18:30;11.00;71.10
254;DHT22;590;48.772;8.846;2023-06-01T02:20:58;11.00;71.00
254;DHT22;590;48.772;8.846;2023-06-01T02:23:27;11.00;71.60
254;DHT22;590;48.772;8.846;2023-06-01T02:25:58;11.00;71.60
254;DHT22;590;48.772;8.846;2023-06-01T02:28:26;10.90;72.10
254;DHT22;590;48.772;8.846;2023-06-01T02:30:54;11.00;72.50
254;DHT22;590;48.772;8.846;2023-06-01T02:33:23;10.90;72.20
254;DHT22;590;48.772;8.846;2023-06-01T02:35:52;10.90;72.10
254;DHT22;590;48.772;8.846;2023-06-01T02:38:20;10.90;72.20
254;DHT22;590;48.772;8.846;2023-06-01T02:40:48;10.90;72.60
254;DHT22;590;48.772;8.846;2023-06-01T02:43:16;10.80;71.60
254;DHT22;590;48.772;8.846;2023-06-01T02:45:44;10.70;72.10
254;DHT22;590;48.772;8.846;2023-06-01T02:48:12;10.70;72.70
254;DHT22;590;48.772;8.846;2023-06-01T02:50:42;10.70;72.70
254;DHT22;590;48.772;8.846;2023-06-01T02:53:10;10.60;73.20
254;DHT22;590;48.772;8.846;2023-06-01T02:55:38;10.60;74.20
254;DHT22;590;48.772;8.846;2023-06-01T02:58:06;10.60;74.20
254;DHT22;590;48.772;8.846;2023-06-01T03:00:41;10.60;74.50
254;DHT22;590;48.772;8.846;2023-06-01T03:03:09;10.60;74.60
254;DHT22;590;48.772;8.846;2023-06-01T03:05:38;10.50;75.30
254;DHT22;590;48.772;8.846;2023-06-01T03:08:08;10.60;75.60
254;DHT22;590;48.772;8.846;2023-06-01T03:10:36;10.50;74.70
254;DHT22;590;48.772;8.846;2023-06-01T03:13:04;10.50;75.00
254;DHT22;590;48.772;8.846;2023-06-01T03:15:33;10.60;76.50
254;DHT22;590;48.772;8.846;2023-06-01T03:18:01;10.60;76.10
254;DHT22;590;48.772;8.846;2023-06-01T03:20:29;10.70;75.20
254;DHT22;590;48.772;8.846;2023-06-01T03:22:57;10.70;74.40
254;DHT22;590;48.772;8.846;2023-06-01T03:25:26;10.70;74.30
254;DHT22;590;48.772;8.846;2023-06-01T03:27:54;10.60;74.90
254;DHT22;590;48.772;8.846;2023-06-01T03:30:22;10.50;74.20
254;DHT22;590;48.772;8.846;2023-06-01T03:32:50;10.40;74.20
254;DHT22;590;48.772;8.846;2023-06-01T03:35:19;10.30;74.40
254;DHT22;590;48.772;8.846;2023-06-01T03:37:47;10.30;74.90
254;DHT22;590;48.772;8.846;2023-06-01T03:40:15;10.30;75.70
254;DHT22;590;48.772;8.846;2023-06-01T03:42:46;10.30;75.80
254;DHT22;590;48.772;8.846;2023-06-01T03:45:15;10.40;76.10
254;DHT22;590;48.772;8.846;2023-06-01T03:47:44;10.40;76.00
254;DHT22;590;48.772;8.846;2023-06-01T03:50:12;10.40;75.60
254;DHT22;590;48.772;8.846;2023-06-01T03:52:40;10.40;76.40
254;DHT22;590;48.772;8.846;2023-06-01T03:55:09;10.50;76.30
254;DHT22;590;48.772;8.846;2023-06-01T03:57:39;10.50;75.90
254;DHT22;590;48.772;8.846;2023-06-01T04:00:10;10.50;75.80
254;DHT22;590;48.772;8.846;2023-06-01T04:02:47;10.50;75.40
254;DHT22;590;48.772;8.846;2023-06-01T04:05:16;10.60;75.40
254;DHT22;590;48.772;8.846;2023-06-01T04:07:45;10.70;75.60
254;DHT22;590;48.772;8.846;2023-06-01T04:10:14;10.80;74.80
254;DHT22;590;48.772;8.846;2023-06-01T04:12:44;11.00;74.00
254;DHT22;590;48.772;8.846;2023-06-01T04:15:14;11.10;72.60
254;DHT22;590;48.772;8.846;2023-06-01T04:17:43;11.10;71.00
254;DHT22;590;48.772;8.846;2023-06-01T04:20:13;11.20;70.60
254;DHT22;590;48.772;8.846;2023-06-01T04:22:43;11.30;70.70
254;DHT22;590;48.772;8.846;2023-06-01T04:25:13;11.50;71.10
254;DHT22;590;48.772;8.846;2023-06-01T04:27:45;11.70;70.60
254;DHT22;590;48.772;8.846;2023-06-01T04:30:15;11.90;69.60
254;DHT22;590;48.772;8.846;2023-06-01T04:32:44;12.90;68.40
254;DHT22;590;48.772;8.846;2023-06-01T04:35:15;14.60;60.10
254;DHT22;590;48.772;8.846;2023-06-01T04:37:43;16.50;40.00
254;DHT22;590;48.772;8.846;2023-06-01T04:40:11;18.10;28.20
254;DHT22;590;48.772;8.846;2023-06-01T04:42:41;19.60;20.80
254;DHT22;590;48.772;8.846;2023-06-01T04:45:12;20.90;14.30
254;DHT22;590;48.772;8.846;2023-06-01T04:47:43;22.10;9.50
254;DHT22;590;48.772;8.846;2023-06-01T04:50:13;23.20;6.50
254;DHT22;590;48.772;8.846;2023-06-01T04:52:43;24.00;3.30
254;DHT22;590;48.772;8.846;2023-06-01T04:55:12;24.70;2.50
254;DHT22;590;48.772;8.846;2023-06-01T04:57:40;25.30;1.20
254;DHT22;590;48.772;8.846;2023-06-01T05:00:11;25.90;1.00
254;DHT22;590;48.772;8.846;2023-06-01T05:02:42;26.50;1.00
254;DHT22;590;48.772;8.846;2023-06-01T05:05:11;27.00;1.00
254;DHT22;590;48.772;8.846;2023-06-01T05:07:40;27.50;1.00
254;DHT22;590;48.772;8.846;2023-06-01T05:10:10;27.80;1.00
254;DHT22;590;48.772;8.846;2023-06-01T05:12:38;27.80;1.00
254;DHT22;590;48.772;8.846;2023-06-01T05:15:08;27.20;1.00
254;DHT22;590;48.772;8.846;2023-06-01T05:17:38;27.00;1.00
254;DHT22;590;48.772;8.846;2023-06-01T05:20:09;26.60;1.00
254;DHT22;590;48.772;8.846;2023-06-01T05:22:38;26.20;1.00
254;DHT22;590;48.772;8.846;2023-06-01T05:25:07;25.60;1.00
254;DHT22;590;48.772;8.846;2023-06-01T05:27:35;25.20;1.00
254;DHT22;590;48.772;8.846;2023-06-01T05:30:04;24.60;1.00
254;DHT22;590;48.772;8.846;2023-06-01T05:32:33;24.10;1.10
254;DHT22;590;48.772;8.846;2023-06-01T05:35:01;23.50;2.10
254;DHT22;590;48.772;8.846;2023-06-01T05:37:32;23.10;2.10
254;DHT22;590;48.772;8.846;2023-06-01T05:40:00;22.90;3.40
254;DHT22;590;48.772;8.846;2023-06-01T05:42:30;22.60;3.80
254;DHT22;590;48.772;8.846;2023-06-01T05:44:58;22.40;4.10
254;DHT22;590;48.772;8.846;2023-06-01T05:47:26;22.20;5.70
254;DHT22;590;48.772;8.846;2023-06-01T05:49:54;22.00;5.50
254;DHT22;590;48.772;8.846;2023-06-01T05:52:23;22.00;6.20
254;DHT22;590;48.772;8.846;2023-06-01T05:54:52;21.90;6.90
254;DHT22;590;48.772;8.846;2023-06-01T05:57:20;22.00;7.50
254;DHT22;590;48.772;8.846;2023-06-01T05:59:48;22.20;6.80
254;DHT22;590;48.772;8.846;2023-06-01T06:02:17;22.40;7.60
254;DHT22;590;48.772;8.846;2023-06-01T06:04:45;22.50;6.80
254;DHT22;590;48.772;8.846;2023-06-01T06:07:13;22.60;6.90
254;DHT22;590;48.772;8.846;2023-06-01T06:09:41;22.80;7.20
254;DHT22;590;48.772;8.846;2023-06-01T06:12:10;23.00;6.40
254;DHT22;590;48.772;8.846;2023-06-01T06:14:38;23.30;7.10
254;DHT22;590;48.772;8.846;2023-06-01T06:17:08;23.70;6.30
254;DHT22;590;48.772;8.846;2023-06-01T06:19:36;24.00;5.60
254;DHT22;590;48.772;8.846;2023-06-01T06:22:04;24.30;5.10
254;DHT22;590;48.772;8.846;2023-06-01T06:24:33;24.70;4.40
254;DHT22;590;48.772;8.846;2023-06-01T06:27:01;25.00;4.30
254;DHT22;590;48.772;8.846;2023-06-01T06:29:31;25.40;3.40
254;DHT22;590;48.772;8.846;2023-06-01T06:31:59;25.90;2.60
254;DHT22;590;48.772;8.846;2023-06-01T06:34:27;26.20;1.50
254;DHT22;590;48.772;8.846;2023-06-01T06:37:03;26.50;1.00
254;DHT22;590;48.772;8.846;2023-06-01T06:39:31;26.70;1.00
254;DHT22;590;48.772;8.846;2023-06-01T06:42:00;27.00;1.00
254;DHT22;590;48.772;8.846;2023-06-01T06:44:30;27.30;1.00
254;DHT22;590;48.772;8.846;2023-06-01T06:46:59;27.70;1.00
254;DHT22;590;48.772;8.846;2023-06-01T06:49:28;28.00;1.00
254;DHT22;590;48.772;8.846;2023-06-01T06:51:57;28.30;1.00
254;DHT22;590;48.772;8.846;2023-06-01T06:54:25;28.60;1.00
254;DHT22;590;48.772;8.846;2023-06-01T06:56:53;28.80;1.00
254;DHT22;590;48.772;8.846;2023-06-01T06:59:21;29.00;1.00
254;DHT22;590;48.772;8.846;2023-06-01T07:01:50;29.20;1.00
254;DHT22;590;48.772;8.846;2023-06-01T07:04:18;29.50;1.00
254;DHT22;590;48.772;8.846;2023-06-01T07:06:47;29.70;1.00
254;DHT22;590;48.772;8.846;2023-06-01T07:09:17;29.80;1.00
254;DHT22;590;48.772;8.846;2023-06-01T07:11:45;30.00;1.00
254;DHT22;590;48.772;8.846;2023-06-01T07:14:15;30.00;1.00
254;DHT22;590;48.772;8.846;2023-06-01T07:16:43;30.30;1.00
254;DHT22;590;48.772;8.846;2023-06-01T07:19:12;30.60;1.00
254;DHT22;590;48.772;8.846;2023-06-01T07:21:40;30.90;1.00
254;DHT22;590;48.772;8.846;2023-06-01T07:24:09;31.10;1.00
254;DHT22;590;48.772;8.846;2023-06-01T07:26:37;31.40;1.00
254;DHT22;590;48.772;8.846;2023-06-01T07:29:05;31.50;1.00
254;DHT22;590;48.772;8.846;2023-06-01T07:31:33;31.60;1.00
254;DHT22;590;48.772;8.846;2023-06-01T07:34:02;31.70;1.00
254;DHT22;590;48.772;8.846;2023-06-01T07:36:31;31.60;1.00
254;DHT22;590;48.772;8.846;2023-06-01T07:39:04;31.50;1.00
254;DHT22;590;48.772;8.846;2023-06-01T07:41:36;31.40;1.00
254;DHT22;590;48.772;8.846;2023-06-01T07:44:06;31.30;1.00
254;DHT22;590;48.772;8.846;2023-06-01T07:46:34;31.20;1.00
254;DHT22;590;48.772;8.846;2023-06-01T07:49:02;31.20;1.00
254;DHT22;590;48.772;8.846;2023-06-01T07:51:32;31.30;1.00
254;DHT22;590;48.772;8.846;2023-06-01T07:54:00;31.10;1.00
254;DHT22;590;48.772;8.846;2023-06-01T07:56:28;31.10;1.00
254;DHT22;590;48.772;8.846;2023-06-01T07:58:56;31.00;1.00
254;DHT22;590;48.772;8.846;2023-06-01T08:01:24;31.20;1.00
254;DHT22;590;48.772;8.846;2023-06-01T08:03:52;31.30;1.00
254;DHT22;590;48.772;8.846;2023-06-01T08:06:23;31.30;1.00
254;DHT22;590;48.772;8.846;2023-06-01T08:08:53;31.20;1.00
254;DHT22;590;48.772;8.846;2023-06-01T08:11:21;31.30;1.00
254;DHT22;590;48.772;8.846;2023-06-01T08:13:50;31.30;1.00
254;DHT22;590;48.772;8.846;2023-06-01T08:16:19;31.40;1.00
254;DHT22;590;48.772;8.846;2023-06-01T08:18:47;31.70;1.00
254;DHT22;590;48.772;8.846;2023-06-01T08:21:15;31.60;1.00
254;DHT22;590;48.772;8.846;2023-06-01T08:23:44;31.60;1.00
254;DHT22;590;48.772;8.846;2023-06-01T08:26:15;31.60;1.00
254;DHT22;590;48.772;8.846;2023-06-01T08:28:43;31.60;1.00
254;DHT22;590;48.772;8.846;2023-06-01T08:31:18;31.50;1.00
254;DHT22;590;48.772;8.846;2023-06-01T08:33:48;31.50;1.00
254;DHT22;590;48.772;8.846;2023-06-01T08:36:16;31.50;1.00
254;DHT22;590;48.772;8.846;2023-06-01T08:38:45;31.40;1.00
254;DHT22;590;48.772;8.846;2023-06-01T08:41:22;31.60;1.00
254;DHT22;590;48.772;8.846;2023-06-01T08:43:54;31.50;1.00
254;DHT22;590;48.772;8.846;2023-06-01T08:46:24;31.30;1.00
254;DHT22;590;48.772;8.846;2023-06-01T08:48:53;31.00;1.00
254;DHT22;590;48.772;8.846;2023-06-01T08:51:22;31.10;1.00
254;DHT22;590;48.772;8.846;2023-06-01T08:53:52;31.00;1.00
254;DHT22;590;48.772;8.846;2023-06-01T08:56:21;31.00;1.00
254;DHT22;590;48.772;8.846;2023-06-01T08:58:50;30.80;1.00
254;DHT22;590;48.772;8.846;2023-06-01T09:01:20;30.80;1.00
254;DHT22;590;48.772;8.846;2023-06-01T09:03:50;30.80;1.00
254;DHT22;590;48.772;8.846;2023-06-01T09:06:20;30.80;1.00
254;DHT22;590;48.772;8.846;2023-06-01T09:08:48;30.70;1.00
254;DHT22;590;48.772;8.846;2023-06-01T09:11:17;30.70;1.00
254;DHT22;590;48.772;8.846;2023-06-01T09:13:46;30.60;1.00
254;DHT22;590;48.772;8.846;2023-06-01T09:16:15;30.60;1.00
254;DHT22;590;48.772;8.846;2023-06-01T09:19:01;30.70;1.00
254;DHT22;590;48.772;8.846;2023-06-01T09:21:29;30.80;1.00
254;DHT22;590;48.772;8.846;2023-06-01T09:24:17;30.60;1.00
254;DHT22;590;48.772;8.846;2023-06-01T09:26:47;30.70;1.00
254;DHT22;590;48.772;8.846;2023-06-01T09:29:17;30.80;1.00
254;DHT22;590;48.772;8.846;2023-06-01T09:31:46;30.50;1.00
254;DHT22;590;48.772;8.846;2023-06-01T09:34:16;30.50;1.00
254;DHT22;590;48.772;8.846;2023-06-01T09:36:46;30.40;1.00
254;DHT22;590;48.772;8.846;2023-06-01T09:39:16;30.30;1.00
254;DHT22;590;48.772;8.846;2023-06-01T09:41:50;30.30;1.00
254;DHT22;590;48.772;8.846;2023-06-01T09:44:27;30.40;1.00
254;DHT22;590;48.772;8.846;2023-06-01T09:46:57;30.20;1.00
254;DHT22;590;48.772;8.846;2023-06-01T09:49:26;30.30;1.00
254;DHT22;590;48.772;8.846;2023-06-01T09:52:09;30.20;1.00
254;DHT22;590;48.772;8.846;2023-06-01T09:54:41;29.90;1.00
254;DHT22;590;48.772;8.846;2023-06-01T09:57:10;29.50;1.00
254;DHT22;590;48.772;8.846;2023-06-01T09:59:42;29.40;1.00
254;DHT22;590;48.772;8.846;2023-06-01T10:02:14;29.10;1.00
254;DHT22;590;48.772;8.846;2023-06-01T10:04:47;28.80;1.00
254;DHT22;590;48.772;8.846;2023-06-01T10:07:17;28.50;1.00
254;DHT22;590;48.772;8.846;2023-06-01T10:09:50;28.00;1.00
254;DHT22;590;48.772;8.846;2023-06-01T10:12:18;27.80;1.00
254;DHT22;590;48.772;8.846;2023-06-01T10:14:49;27.90;1.00
254;DHT22;590;48.772;8.846;2023-06-01T10:17:19;28.00;1.00
254;DHT22;590;48.772;8.846;2023-06-01T10:19:47;28.10;1.00
254;DHT22;590;48.772;8.846;2023-06-01T10:22:16;28.00;1.00
254;DHT22;590;48.772;8.846;2023-06-01T10:24:44;27.90;1.00
254;DHT22;590;48.772;8.846;2023-06-01T10:27:18;27.90;1.00
254;DHT22;590;48.772;8.846;2023-06-01T10:29:49;27.80;1.00
254;DHT22;590;48.772;8.846;2023-06-01T10:32:41;27.80;1.00
254;DHT22;590;48.772;8.846;2023-06-01T10:35:51;27.80;1.00
254;DHT22;590;48.772;8.846;2023-06-01T10:38:25;27.90;1.00
254;DHT22;590;48.772;8.846;2023-06-01T10:41:27;28.00;1.00
254;DHT22;590;48.772;8.846;2023-06-01T10:43:57;28.20;1.00
254;DHT22;590;48.772;8.846;2023-06-01T10:46:50;28.20;1.00
254;DHT22;590;48.772;8.846;2023-06-01T10:49:19;28.10;1.00
254;DHT22;590;48.772;8.846;2023-06-01T10:51:47;28.20;1.00
254;DHT22;590;48.772;8.846;2023-06-01T10:54:28;28.20;1.00
254;DHT22;590;48.772;8.846;2023-06-01T10:57:23;28.10;1.00
254;DHT22;590;48.772;8.846;2023-06-01T11:00:10;27.90;1.00
254;DHT22;590;48.772;8.846;2023-06-01T11:02:53;27.70;1.00
254;DHT22;590;48.772;8.846;2023-06-01T11:05:40;27.60;1.00
254;DHT22;590;48.772;8.846;2023-06-01T11:11:09;27.40;1.00
254;DHT22;590;48.772;8.846;2023-06-01T11:13:38;27.40;1.00
254;DHT22;590;48.772;8.846;2023-06-01T11:16:28;27.50;1.00
254;DHT22;590;48.772;8.846;2023-06-01T11:18:59;27.40;1.00
254;DHT22;590;48.772;8.846;2023-06-01T11:21:30;27.50;1.00
254;DHT22;590;48.772;8.846;2023-06-01T11:24:03;27.50;1.00
254;DHT22;590;48.772;8.846;2023-06-01T11:26:34;27.60;1.00
254;DHT22;590;48.772;8.846;2023-06-01T11:29:04;27.50;1.00
254;DHT22;590;48.772;8.846;2023-06-01T11:31:35;27.40;1.00
254;DHT22;590;48.772;8.846;2023-06-01T11:34:06;27.30;1.00
254;DHT22;590;48.772;8.846;2023-06-01T11:36:39;27.30;1.00
254;DHT22;590;48.772;8.846;2023-06-01T11:39:20;27.40;1.00
254;DHT22;590;48.772;8.846;2023-06-01T11:42:04;27.50;1.00
254;DHT22;590;48.772;8.846;2023-06-01T11:44:33;27.40;1.00
254;DHT22;590;48.772;8.846;2023-06-01T11:47:02;27.50;1.00
254;DHT22;590;48.772;8.846;2023-06-01T11:49:41;27.60;1.00
254;DHT22;590;48.772;8.846;2023-06-01T11:52:13;27.40;1.00
254;DHT22;590;48.772;8.846;2023-06-01T11:54:41;27.30;1.00
254;DHT22;590;48.772;8.846;2023-06-01T11:57:10;27.40;1.00
254;DHT22;590;48.772;8.846;2023-06-01T11:59:38;27.50;1.00
254;DHT22;590;48.772;8.846;2023-06-01T12:02:21;27.70;1.00
254;DHT22;590;48.772;8.846;2023-06-01T12:04:56;28.10;1.00
254;DHT22;590;48.772;8.846;2023-06-01T12:07:26;28.40;1.00
254;DHT22;590;48.772;8.846;2023-06-01T12:09:54;28.60;1.00
254;DHT22;590;48.772;8.846;2023-06-01T12:12:25;28.70;1.00
254;DHT22;590;48.772;8.846;2023-06-01T12:14:56;28.60;1.00
254;DHT22;590;48.772;8.846;2023-06-01T12:17:24;28.40;1.00
254;DHT22;590;48.772;8.846;2023-06-01T12:19:52;28.30;1.00
254;DHT22;590;48.772;8.846;2023-06-01T12:22:21;28.30;1.00
254;DHT22;590;48.772;8.846;2023-06-01T12:25:05;28.10;1.00
254;DHT22;590;48.772;8.846;2023-06-01T12:27:35;28.00;1.00
254;DHT22;590;48.772;8.846;2023-06-01T12:30:20;28.00;1.00
254;DHT22;590;48.772;8.846;2023-06-01T12:32:49;27.90;1.00
254;DHT22;590;48.772;8.846;2023-06-01T12:35:17;27.90;1.00
254;DHT22;590;48.772;8.846;2023-06-01T12:38:02;27.80;1.00
254;DHT22;590;48.772;8.846;2023-06-01T12:40:30;27.80;1.00
254;DHT22;590;48.772;8.846;2023-06-01T12:42:58;27.90;1.00
254;DHT22;590;48.772;8.846;2023-06-01T12:45:34;28.00;1.00
254;DHT22;590;48.772;8.846;2023-06-01T12:48:04;28.20;1.00
254;DHT22;590;48.772;8.846;2023-06-01T12:50:32;28.20;1.00
254;DHT22;590;48.772;8.846;2023-06-01T12:53:02;28.20;1.00
254;DHT22;590;48.772;8.846;2023-06-01T12:55:30;28.20;1.00
254;DHT22;590;48.772;8.846;2023-06-01T12:57:58;28.30;1.00
254;DHT22;590;48.772;8.846;2023-06-01T13:00:26;28.20;1.00
254;DHT22;590;48.772;8.846;2023-06-01T13:03:14;28.20;1.00
254;DHT22;590;48.772;8.846;2023-06-01T13:05:43;28.00;1.00
254;DHT22;590;48.772;8.846;2023-06-01T13:08:14;27.80;1.00
254;DHT22;590;48.772;8.846;2023-06-01T13:10:42;27.60;1.00
254;DHT22;590;48.772;8.846;2023-06-01T13:13:11;27.50;1.00
254;DHT22;590;48.772;8.846;2023-06-01T13:15:39;27.60;1.00
254;DHT22;590;48.772;8.846;2023-06-01T13:18:08;27.60;1.00
254;DHT22;590;48.772;8.846;2023-06-01T13:20:36;27.60;1.00
254;DHT22;590;48.772;8.846;2023-06-01T13:23:06;27.70;1.00
254;DHT22;590;48.772;8.846;2023-06-01T13:25:36;27.90;1.00
254;DHT22;590;48.772;8.846;2023-06-01T13:28:05;28.20;1.00
254;DHT22;590;48.772;8.846;2023-06-01T13:30:35;28.10;1.00
254;DHT22;590;48.772;8.846;2023-06-01T13:33:03;27.90;1.00
254;DHT22;590;48.772;8.846;2023-06-01T13:35:32;27.60;1.00
254;DHT22;590;48.772;8.846;2023-06-01T13:38:00;27.40;1.00
254;DHT22;590;48.772;8.846;2023-06-01T13:40:28;27.30;1.00
254;DHT22;590;48.772;8.846;2023-06-01T13:42:57;27.20;1.00
254;DHT22;590;48.772;8.846;2023-06-01T13:45:27;27.20;1.00
254;DHT22;590;48.772;8.846;2023-06-01T13:47:55;27.10;1.00
254;DHT22;590;48.772;8.846;2023-06-01T13:50:25;27.10;1.00
254;DHT22;590;48.772;8.846;2023-06-01T13:52:53;27.10;1.00
254;DHT22;590;48.772;8.846;2023-06-01T13:55:24;27.00;1.00
254;DHT22;590;48.772;8.846;2023-06-01T13:57:52;27.10;1.00
254;DHT22;590;48.772;8.846;2023-06-01T14:00:22;27.10;1.00
254;DHT22;590;48.772;8.846;2023-06-01T14:02:50;27.10;1.00
254;DHT22;590;48.772;8.846;2023-06-01T14:05:18;27.10;1.00
254;DHT22;590;48.772;8.846;2023-06-01T14:07:54;27.00;1.00
254;DHT22;590;48.772;8.846;2023-06-01T14:10:23;27.00;1.00
254;DHT22;590;48.772;8.846;2023-06-01T14:12:51;27.00;1.00
254;DHT22;590;48.772;8.846;2023-06-01T14:15:19;27.00;1.00
254;DHT22;590;48.772;8.846;2023-06-01T14:17:48;26.90;1.00
254;DHT22;590;48.772;8.846;2023-06-01T14:20:17;26.90;1.00
254;DHT22;590;48.772;8.846;2023-06-01T14:22:45;26.80;1.00
254;DHT22;590;48.772;8.846;2023-06-01T14:25:13;26.70;1.00
254;DHT22;590;48.772;8.846;2023-06-01T14:27:42;26.70;1.00
254;DHT22;590;48.772;8.846;2023-06-01T14:30:10;26.70;1.00
254;DHT22;590;48.772;8.846;2023-06-01T14:32:39;26.70;1.00
254;DHT22;590;48.772;8.846;2023-06-01T14:35:08;26.50;1.00
254;DHT22;590;48.772;8.846;2023-06-01T14:37:42;26.60;1.00
254;DHT22;590;48.772;8.846;2023-06-01T14:40:16;26.50;1.00
254;DHT22;590;48.772;8.846;2023-06-01T14:42:44;26.40;1.00
254;DHT22;590;48.772;8.846;2023-06-01T14:45:12;26.40;1.00
254;DHT22;590;48.772;8.846;2023-06-01T14:47:40;26.40;1.00
254;DHT22;590;48.772;8.846;2023-06-01T14:50:10;26.50;1.00
254;DHT22;590;48.772;8.846;2023-06-01T14:52:39;26.50;1.00
254;DHT22;590;48.772;8.846;2023-06-01T14:55:07;26.40;1.00
254;DHT22;590;48.772;8.846;2023-06-01T14:57:38;26.40;1.00
254;DHT22;590;48.772;8.846;2023-06-01T15:00:07;26.40;1.00
254;DHT22;590;48.772;8.846;2023-06-01T15:02:37;26.30;1.00
254;DHT22;590;48.772;8.846;2023-06-01T15:05:06;26.30;1.00
254;DHT22;590;48.772;8.846;2023-06-01T15:07:35;26.20;1.00
254;DHT22;590;48.772;8.846;2023-06-01T15:10:04;26.20;1.00
254;DHT22;590;48.772;8.846;2023-06-01T15:12:33;26.10;1.00
254;DHT22;590;48.772;8.846;2023-06-01T15:15:02;26.10;1.00
254;DHT22;590;48.772;8.846;2023-06-01T15:17:30;26.10;1.00
254;DHT22;590;48.772;8.846;2023-06-01T15:19:59;26.00;1.00
254;DHT22;590;48.772;8.846;2023-06-01T15:22:27;25.90;1.00
254;DHT22;590;48.772;8.846;2023-06-01T15:24:56;25.90;1.00
254;DHT22;590;48.772;8.846;2023-06-01T15:27:24;25.90;1.00
254;DHT22;590;48.772;8.846;2023-06-01T15:29:52;25.80;1.00
254;DHT22;590;48.772;8.846;2023-06-01T15:32:20;25.80;1.00
254;DHT22;590;48.772;8.846;2023-06-01T15:34:48;25.80;1.00
254;DHT22;590;48.772;8.846;2023-06-01T15:37:17;25.80;1.00
254;DHT22;590;48.772;8.846;2023-06-01T15:39:46;25.80;1.00
254;DHT22;590;48.772;8.846;2023-06-01T15:42:16;25.80;1.00
254;DHT22;590;48.772;8.846;2023-06-01T15:44:44;25.80;1.00
254;DHT22;590;48.772;8.846;2023-06-01T15:47:12;25.80;1.00
254;DHT22;590;48.772;8.846;2023-06-01T15:49:40;25.70;1.00
254;DHT22;590;48.772;8.846;2023-06-01T15:52:09;25.70;1.00
254;DHT22;590;48.772;8.846;2023-06-01T15:54:37;25.60;1.00
254;DHT22;590;48.772;8.846;2023-06-01T15:57:05;25.60;1.00
254;DHT22;590;48.772;8.846;2023-06-01T15:59:35;25.60;1.00
254;DHT22;590;48.772;8.846;2023-06-01T16:02:04;25.60;1.00
254;DHT22;590;48.772;8.846;2023-06-01T16:04:32;25.60;1.00
254;DHT22;590;48.772;8.846;2023-06-01T16:07:00;25.60;1.00
254;DHT22;590;48.772;8.846;2023-06-01T16:09:28;25.60;1.00
254;DHT22;590;48.772;8.846;2023-06-01T16:11:57;25.60;1.00
254;DHT22;590;48.772;8.846;2023-06-01T16:14:25;25.70;1.00
254;DHT22;590;48.772;8.846;2023-06-01T16:16:54;25.60;1.00
254;DHT22;590;48.772;8.846;2023-06-01T16:19:22;25.60;1.00
254;DHT22;590;48.772;8.846;2023-06-01T16:21:50;25.50;1.00
254;DHT22;590;48.772;8.846;2023-06-01T16:24:18;25.50;1.00
254;DHT22;590;48.772;8.846;2023-06-01T16:26:46;25.50;1.00
254;DHT22;590;48.772;8.846;2023-06-01T16:29:14;25.50;1.00
254;DHT22;590;48.772;8.846;2023-06-01T16:31:42;25.50;1.00
254;DHT22;590;48.772;8.846;2023-06-01T16:34:12;25.40;1.00
254;DHT22;590;48.772;8.846;2023-06-01T16:36:40;25.40;1.00
254;DHT22;590;48.772;8.846;2023-06-01T16:39:08;25.40;1.00
254;DHT22;590;48.772;8.846;2023-06-01T16:41:36;25.30;1.00
254;DHT22;590;48.772;8.846;2023-06-01T16:44:04;25.30;1.00
254;DHT22;590;48.772;8.846;2023-06-01T16:46:32;25.30;1.00
254;DHT22;590;48.772;8.846;2023-06-01T16:49:00;25.30;1.00
254;DHT22;590;48.772;8.846;2023-06-01T16:51:29;25.20;1.00
254;DHT22;590;48.772;8.846;2023-06-01T16:53:58;25.30;1.00
254;DHT22;590;48.772;8.846;2023-06-01T16:56:26;25.30;1.00
254;DHT22;590;48.772;8.846;2023-06-01T16:58:54;25.20;1.00
254;DHT22;590;48.772;8.846;2023-06-01T17:01:22;25.30;1.00
254;DHT22;590;48.772;8.846;2023-06-01T17:03:50;25.20;1.00
254;DHT22;590;48.772;8.846;2023-06-01T17:06:19;25.20;1.00
254;DHT22;590;48.772;8.846;2023-06-01T17:08:49;25.20;1.00
254;DHT22;590;48.772;8.846;2023-06-01T17:11:17;25.20;1.00
254;DHT22;590;48.772;8.846;2023-06-01T17:13:45;25.20;1.00